Flight Track Log - Related Links

Times and Time Zones

All times are in EDT time to prevent confusion due to time zone crossing. See the N618JB flight status page for this flight to view local times or setup timezone preferences in your user account.

Time Position Orientation Groundspeed Altitude Reporting Facility
EDT Latitude Longitude Course Direction KTS km/h feet Rate Location/Type
Thu 09:09:19 28.4167 -81.3167 350° North 152 282 800  Level Orlando TRACON
Thu 09:09:49 28.4000 -81.3000 139° Southeast 159 295 1.800 1.800 Climbing Orlando TRACON
Thu 09:10:49 28.3667 -81.2500 127° Southeast 223 414 3.500 2.350 Climbing Orlando TRACON
Thu 09:11:49 28.3500 -81.1833 106° East 260 481 6.500 2.231 Climbing Orlando TRACON
Thu 09:12:00 28.8590 -81.3526 355° North  Level FlightAware Approximate
Thu 09:12:50 28.3667 -81.1000 77° East 279 517 8.000  Level Orlando TRACON
Thu 09:13:00 28.9716 -81.3638 355° North  Level FlightAware Approximate
Thu 09:13:50 28.4500 -81.1000 360° North 301 557 8.700  Level Orlando TRACON
Thu 09:14:00 29.0833 -81.3833 350° North  Level FlightAware Approximate
Thu 09:15:52 28.6058 -81.1711 338° Northwest 349 647 12.100  Level Jacksonville Center
Thu 09:16:52 28.7044 -81.2167 338° Northwest 367 679 14.600 2.300 Climbing Jacksonville Center
Thu 09:17:52 28.8031 -81.2578 340° North 374 692 16.700 1.950 Climbing Jacksonville Center
Thu 09:18:52 28.9081 -81.3033 339° North 379 702 18.500 1.900 Climbing Jacksonville Center
Thu 09:19:52 29.0108 -81.3542 337° Northwest 391 724 20.500 1.700 Climbing Jacksonville Center
Thu 09:20:52 29.1242 -81.3928 343° North 402 745 21.900 1.450 Climbing Jacksonville Center
Thu 09:21:52 29.2433 -81.4028 356° North 415 769 23.400 1.600 Climbing Jacksonville Center
Thu 09:22:52 29.3644 -81.4175 354° North 426 789 25.100 1.600 Climbing Jacksonville Center
Thu 09:23:52 29.4983 -81.4300 355° North 437 810 26.600 950 Climbing Jacksonville Center
Thu 09:24:52 29.6214 -81.4425 355° North 437 810 27.000 200 Climbing Jacksonville Center
Thu 09:25:52 29.7469 -81.4525 356° North 443 821 27.000  Level Jacksonville Center
Thu 09:26:52 29.8703 -81.4650 355° North 443 821 27.000  Level Jacksonville Center
Thu 09:27:52 29.9956 -81.4775 355° North 443 821 27.000 150 Level Jacksonville Center
Thu 09:28:52 30.1211 -81.4925 354° North 448 830 27.300 500 Climbing Jacksonville Center
Thu 09:29:52 30.2303 -81.5558 333° Northwest 434 803 28.000 400 Climbing Jacksonville Center
Thu 09:30:52 30.3356 -81.6339 327° Northwest 434 803 28.100 600 Climbing Jacksonville Center
Thu 09:31:52 30.4406 -81.7119 327° Northwest 447 827 29.200 1.050 Climbing Jacksonville Center
Thu 09:32:52 30.5642 -81.7539 344° North 453 838 30.200 900 Climbing Jacksonville Center
Thu 09:33:52 30.6911 -81.7136 15° North 437 810 31.000 400 Climbing Jacksonville Center
Thu 09:34:52 30.8139 -81.6711 17° North 444 822 31.000  Level Jacksonville Center
Thu 09:35:52 30.9389 -81.6283 16° North 444 822 31.000  Level Jacksonville Center
Thu 09:36:52 31.0617 -81.5831 18° North 454 840 31.000  Level Jacksonville Center
Thu 09:37:52 31.1883 -81.5400 16° North 459 850 31.000  Level Jacksonville Center
Thu 09:38:52 31.3153 -81.4942 17° North 464 859 31.000  Level Jacksonville Center
Thu 09:39:52 31.4400 -81.4486 17° North 464 859 31.000  Level Jacksonville Center
Thu 09:40:52 31.5692 -81.4053 16° North 472 874 31.000  Level Jacksonville Center
Thu 09:41:52 31.6814 -81.3642 17° North 472 874 31.000  Level Jacksonville Center
Thu 09:42:52 31.8206 -81.3156 17° North 472 874 31.000  Level Jacksonville Center
Thu 09:43:52 31.9369 -81.2719 18° North 472 874 31.000  Level Jacksonville Center
Thu 09:44:52 32.0658 -81.2256 17° North 472 874 31.000  Level Jacksonville Center
Thu 09:45:52 32.1861 -81.1669 22° Northeast 472 874 31.000  Level Jacksonville Center
Thu 09:46:52 32.2997 -81.0861 31° Northeast 472 874 31.000  Level Jacksonville Center
Thu 09:47:52 32.4156 -81.0050 31° Northeast 472 874 31.000  Level Jacksonville Center
Thu 09:48:52 32.5292 -80.9264 30° Northeast 472 874 31.000  Level Jacksonville Center
Thu 09:49:52 32.6406 -80.8425 32° Northeast 472 874 31.000  Level Jacksonville Center
Thu 09:50:52 32.7539 -80.7608 31° Northeast 467 864 31.000  Level Jacksonville Center
Thu 09:51:52 32.8653 -80.6792 32° Northeast 467 864 31.000  Level Jacksonville Center
Thu 09:52:52 32.9869 -80.5894 32° Northeast 467 864 31.000  Level Jacksonville Center
Thu 09:53:52 33.1003 -80.5097 31° Northeast 467 864 31.000  Level Jacksonville Center
Thu 09:54:52 33.2114 -80.4297 31° Northeast 467 864 31.000  Level Jacksonville Center
Thu 09:55:52 33.3225 -80.3447 33° Northeast 467 864 31.000  Level Jacksonville Center
Thu 09:56:52 33.4314 -80.2644 32° Northeast 461 855 31.000  Level Jacksonville Center
Thu 09:57:52 33.5403 -80.1814 32° Northeast 461 855 31.000  Level Jacksonville Center
Thu 09:58:52 33.6489 -80.1006 32° Northeast 461 855 31.000  Level Jacksonville Center
Thu 09:59:52 33.7556 -80.0175 33° Northeast 461 855 31.000  Level Jacksonville Center
Thu 10:00:52 33.8644 -79.9389 31° Northeast 461 855 31.000  Level Jacksonville Center
Thu 10:01:52 33.9731 -79.8550 33° Northeast 461 855 31.000  Level Jacksonville Center
Thu 10:02:52 34.0775 -79.7736 33° Northeast 461 855 31.000  Level Jacksonville Center
Thu 10:05:14 34.3339 -79.6108 28° Northeast 451 835 31.000  Level Washington Center
Thu 10:06:14 34.4467 -79.5408 27° Northeast 451 835 31.000  Level Washington Center
Thu 10:07:14 34.5594 -79.4731 26° Northeast 451 835 31.000  Level Washington Center
Thu 10:08:14 34.6703 -79.4025 28° Northeast 451 835 31.000  Level Washington Center
Thu 10:09:14 34.7831 -79.3319 27° Northeast 451 835 31.000  Level Washington Center
Thu 10:10:14 34.8939 -79.2611 28° Northeast 446 826 31.000  Level Washington Center
Thu 10:11:14 35.0064 -79.1928 26° Northeast 446 826 31.000  Level Washington Center
Thu 10:12:14 35.1278 -79.1169 27° Northeast 446 826 31.000  Level Washington Center
Thu 10:13:14 35.2422 -79.0481 26° Northeast 446 826 31.000  Level Washington Center
Thu 10:14:14 35.3572 -78.9742 28° Northeast 446 826 31.000  Level Washington Center
Thu 10:15:14 35.4719 -78.9025 27° Northeast 451 835 31.000  Level Washington Center
Thu 10:16:14 35.5864 -78.8306 27° Northeast 451 835 31.000  Level Washington Center
Thu 10:17:14 35.7031 -78.7586 27° Northeast 456 845 31.000  Level Washington Center
Thu 10:18:14 35.8178 -78.6839 28° Northeast 456 845 31.000  Level Washington Center
Thu 10:19:14 35.9325 -78.6086 28° Northeast 456 845 31.000  Level Washington Center
Thu 10:20:14 36.0469 -78.5361 27° Northeast 456 845 31.000  Level Washington Center
Thu 10:21:14 36.1572 -78.4631 28° Northeast 456 845 31.000  Level Washington Center
Thu 10:22:14 36.2736 -78.3872 28° Northeast 456 845 31.000  Level Washington Center
Thu 10:23:14 36.3858 -78.3139 28° Northeast 456 845 31.000  Level Washington Center
Thu 10:24:14 36.5003 -78.2406 27° Northeast 456 845 31.000  Level Washington Center
Thu 10:25:14 36.6147 -78.1614 29° Northeast 456 845 31.000  Level Washington Center
Thu 10:26:14 36.7267 -78.0900 27° Northeast 451 835 31.000  Level Washington Center
Thu 10:27:14 36.8389 -78.0133 29° Northeast 451 835 31.000  Level Washington Center
Thu 10:28:14 36.9550 -77.9389 27° Northeast 456 845 31.000  Level Washington Center
Thu 10:29:14 37.0692 -77.8617 28° Northeast 456 845 31.000  Level Washington Center
Thu 10:30:14 37.1833 -77.7842 28° Northeast 456 845 31.000  Level Washington Center
Thu 10:31:14 37.2972 -77.7092 28° Northeast 456 845 31.000  Level Washington Center
Thu 10:32:14 37.4133 -77.6339 27° Northeast 456 845 31.000  Level Washington Center
Thu 10:33:14 37.5272 -77.5583 28° Northeast 456 845 31.000  Level Washington Center
Thu 10:34:14 37.6411 -77.4800 29° Northeast 456 845 31.000  Level Washington Center
Thu 10:35:14 37.7531 -77.4014 29° Northeast 456 845 31.000  Level Washington Center
Thu 10:36:14 37.8667 -77.3253 28° Northeast 462 856 31.000  Level Washington Center
Thu 10:37:14 37.9803 -77.2461 29° Northeast 462 856 31.000  Level Washington Center
Thu 10:38:14 38.0919 -77.1669 29° Northeast 462 856 31.000  Level Washington Center
Thu 10:39:14 38.1975 -77.0714 35° Northeast 462 856 31.000  Level Washington Center
Thu 10:40:14 38.3050 -76.9756 35° Northeast 462 856 31.000  Level Washington Center
Thu 10:41:14 38.4103 -76.8794 36° Northeast 462 856 31.000  Level Washington Center
Thu 10:42:14 38.5156 -76.7858 35° Northeast 462 856 31.000  Level Washington Center
Thu 10:43:14 38.6206 -76.6864 36° Northeast 462 856 31.000  Level Washington Center
Thu 10:44:14 38.7258 -76.5922 35° Northeast 462 856 31.000  Level Washington Center
Thu 10:45:14 38.8308 -76.4978 35° Northeast 462 856 31.000  Level Washington Center
Thu 10:46:14 38.9272 -76.4108 35° Northeast 462 856 31.000 -200 Level Washington Center
Thu 10:47:14 39.0364 -76.3106 35° Northeast 468 867 30.600 -1.050 Descending Washington Center
Thu 10:48:14 39.1431 -76.2125 35° Northeast 473 875 28.900 -1.700 Descending Washington Center
Thu 10:49:14 39.2478 -76.1117 37° Northeast 473 875 27.200 -950 Descending Washington Center
Thu 10:50:14 39.3442 -76.0050 41° Northeast 462 856 27.000 -100 Descending Washington Center
Thu 10:51:14 39.4403 -75.8953 41° Northeast 456 845 27.000 -950 Level Washington Center
Thu 10:52:14 39.5342 -75.7800 43° Northeast 456 845 25.100 -2.100 Descending Washington Center
Thu 10:53:14 39.6261 -75.6697 43° Northeast 456 845 22.800 -2.200 Descending Washington Center
Thu 10:54:14 39.7178 -75.5619 42° Northeast 446 826 20.700 -2.200 Descending Washington Center
Thu 10:55:14 39.8072 -75.4564 42° Northeast 441 816 18.400 -2.300 Descending Washington Center
Thu 10:56:14 39.8986 -75.3428 44° Northeast 423 784 16.100 -2.250 Descending Washington Center
Thu 10:57:14 39.9817 -75.2394 44° Northeast 411 761 13.900 -2.200 Descending Washington Center
Thu 10:58:14 40.0647 -75.1414 42° Northeast 406 752 11.700 -1.550 Descending Washington Center
Thu 10:59:14 40.1414 -75.0486 43° Northeast 391 724 10.800 -1.066 Descending Washington Center
Thu 11:00:46 40.2500 -74.9167 43° Northeast 331 613 9.000 -1.224 Descending New York TRACON
Thu 11:01:46 40.3000 -74.8167 57° Northeast 319 591 7.700 -1.650 Descending New York TRACON
Thu 11:02:46 40.3333 -74.7167 66° East 312 578 5.700 -1.550 Descending New York TRACON
Thu 11:03:46 40.3833 -74.6333 52° Northeast 300 555 4.600 -1.300 Descending New York TRACON
Thu 11:04:46 40.4167 -74.5333 66° East 273 505 3.100 -800 Descending New York TRACON
Thu 11:05:46 40.4500 -74.4500 62° Northeast 231 428 3.000 -53 Descending New York TRACON
Thu 11:06:40 40.4667 -74.3833 72° East 229 425 3.000  Level New York TRACON
Thu 11:07:40 40.5000 -74.3167 57° Northeast 227 420 3.000  Level New York TRACON
Thu 11:08:40 40.5500 -74.2667 37° Northeast 210 389 3.000 -524 Level New York TRACON
Thu 11:09:46 40.6000 -74.2333 27° Northeast 183 340 1.900 -1.000 Descending New York TRACON

Login

Don't have an account? Register now (free) for customized features, flight alerts, and more!